sensor_id;sensor_type;location;lat;lon;timestamp;P1;durP1;ratioP1;P2;durP2;ratioP2
26756;SDS011;23848;49.798;10.228;2022-11-24T00:01:03;7.70;;;4.70;;
26756;SDS011;23848;49.798;10.228;2022-11-24T00:03:32;6.53;;;4.53;;
26756;SDS011;23848;49.798;10.228;2022-11-24T00:06:04;6.78;;;4.40;;
26756;SDS011;23848;49.798;10.228;2022-11-24T00:08:34;6.53;;;4.50;;
26756;SDS011;23848;49.798;10.228;2022-11-24T00:11:03;6.85;;;4.40;;
26756;SDS011;23848;49.798;10.228;2022-11-24T00:13:32;5.78;;;4.03;;
26756;SDS011;23848;49.798;10.228;2022-11-24T00:16:05;5.80;;;4.00;;
26756;SDS011;23848;49.798;10.228;2022-11-24T00:18:34;5.82;;;4.00;;
26756;SDS011;23848;49.798;10.228;2022-11-24T00:21:02;6.75;;;3.90;;
26756;SDS011;23848;49.798;10.228;2022-11-24T00:23:31;5.72;;;3.90;;
26756;SDS011;23848;49.798;10.228;2022-11-24T00:26:05;8.63;;;4.10;;
26756;SDS011;23848;49.798;10.228;2022-11-24T00:28:34;5.30;;;3.85;;
26756;SDS011;23848;49.798;10.228;2022-11-24T00:31:03;5.63;;;3.97;;
26756;SDS011;23848;49.798;10.228;2022-11-24T00:33:36;6.65;;;3.95;;
26756;SDS011;23848;49.798;10.228;2022-11-24T00:36:05;9.38;;;3.70;;
26756;SDS011;23848;49.798;10.228;2022-11-24T00:38:33;7.82;;;3.90;;
26756;SDS011;23848;49.798;10.228;2022-11-24T00:41:02;5.15;;;3.58;;
26756;SDS011;23848;49.798;10.228;2022-11-24T00:43:32;6.75;;;3.47;;
26756;SDS011;23848;49.798;10.228;2022-11-24T00:46:00;5.63;;;3.80;;
26756;SDS011;23848;49.798;10.228;2022-11-24T00:48:29;6.22;;;3.97;;
26756;SDS011;23848;49.798;10.228;2022-11-24T00:50:58;5.43;;;3.63;;
26756;SDS011;23848;49.798;10.228;2022-11-24T00:53:27;7.38;;;3.58;;
26756;SDS011;23848;49.798;10.228;2022-11-24T00:55:56;5.82;;;3.30;;
26756;SDS011;23848;49.798;10.228;2022-11-24T00:58:25;5.85;;;3.50;;
26756;SDS011;23848;49.798;10.228;2022-11-24T01:00:54;6.18;;;3.78;;
26756;SDS011;23848;49.798;10.228;2022-11-24T01:03:28;5.72;;;3.55;;
26756;SDS011;23848;49.798;10.228;2022-11-24T01:06:06;6.38;;;3.60;;
26756;SDS011;23848;49.798;10.228;2022-11-24T01:08:36;5.38;;;3.17;;
26756;SDS011;23848;49.798;10.228;2022-11-24T01:11:09;6.85;;;3.50;;
26756;SDS011;23848;49.798;10.228;2022-11-24T01:13:38;5.30;;;3.25;;
26756;SDS011;23848;49.798;10.228;2022-11-24T01:16:13;7.35;;;3.20;;
26756;SDS011;23848;49.798;10.228;2022-11-24T01:18:43;5.30;;;3.17;;
26756;SDS011;23848;49.798;10.228;2022-11-24T01:21:11;6.57;;;2.95;;
26756;SDS011;23848;49.798;10.228;2022-11-24T01:23:40;5.55;;;3.00;;
26756;SDS011;23848;49.798;10.228;2022-11-24T01:26:10;5.38;;;3.20;;
26756;SDS011;23848;49.798;10.228;2022-11-24T01:28:39;4.53;;;2.70;;
26756;SDS011;23848;49.798;10.228;2022-11-24T01:31:14;5.32;;;3.33;;
26756;SDS011;23848;49.798;10.228;2022-11-24T01:33:44;4.68;;;3.00;;
26756;SDS011;23848;49.798;10.228;2022-11-24T01:36:13;6.72;;;3.10;;
26756;SDS011;23848;49.798;10.228;2022-11-24T01:38:41;6.35;;;3.00;;
26756;SDS011;23848;49.798;10.228;2022-11-24T01:41:11;4.50;;;2.53;;
26756;SDS011;23848;49.798;10.228;2022-11-24T01:43:40;6.20;;;2.90;;
26756;SDS011;23848;49.798;10.228;2022-11-24T01:46:11;6.68;;;3.08;;
26756;SDS011;23848;49.798;10.228;2022-11-24T01:48:44;5.70;;;2.72;;
26756;SDS011;23848;49.798;10.228;2022-11-24T01:51:14;4.55;;;3.13;;
26756;SDS011;23848;49.798;10.228;2022-11-24T01:53:47;5.60;;;3.28;;
26756;SDS011;23848;49.798;10.228;2022-11-24T01:56:16;7.30;;;3.30;;
26756;SDS011;23848;49.798;10.228;2022-11-24T01:58:45;6.57;;;2.70;;
26756;SDS011;23848;49.798;10.228;2022-11-24T02:01:14;4.28;;;2.40;;
26756;SDS011;23848;49.798;10.228;2022-11-24T02:03:44;6.75;;;3.05;;
26756;SDS011;23848;49.798;10.228;2022-11-24T02:06:15;8.25;;;2.60;;
26756;SDS011;23848;49.798;10.228;2022-11-24T02:08:46;6.72;;;2.60;;
26756;SDS011;23848;49.798;10.228;2022-11-24T02:11:16;5.78;;;2.38;;
26756;SDS011;23848;49.798;10.228;2022-11-24T02:13:45;8.27;;;2.83;;
26756;SDS011;23848;49.798;10.228;2022-11-24T02:16:15;6.97;;;2.60;;
26756;SDS011;23848;49.798;10.228;2022-11-24T02:18:45;7.63;;;2.60;;
26756;SDS011;23848;49.798;10.228;2022-11-24T02:21:14;7.18;;;2.42;;
26756;SDS011;23848;49.798;10.228;2022-11-24T02:23:43;6.70;;;3.15;;
26756;SDS011;23848;49.798;10.228;2022-11-24T02:26:15;4.22;;;2.50;;
26756;SDS011;23848;49.798;10.228;2022-11-24T02:28:48;5.90;;;2.80;;
26756;SDS011;23848;49.798;10.228;2022-11-24T02:31:17;10.18;;;2.60;;
26756;SDS011;23848;49.798;10.228;2022-11-24T02:33:45;6.05;;;3.05;;
26756;SDS011;23848;49.798;10.228;2022-11-24T02:36:15;9.07;;;2.83;;
26756;SDS011;23848;49.798;10.228;2022-11-24T02:38:46;6.68;;;3.30;;
26756;SDS011;23848;49.798;10.228;2022-11-24T02:41:16;5.78;;;2.88;;
26756;SDS011;23848;49.798;10.228;2022-11-24T02:43:45;6.50;;;3.00;;
26756;SDS011;23848;49.798;10.228;2022-11-24T02:46:16;8.32;;;3.10;;
26756;SDS011;23848;49.798;10.228;2022-11-24T02:48:45;5.47;;;2.67;;
26756;SDS011;23848;49.798;10.228;2022-11-24T02:51:14;7.15;;;2.90;;
26756;SDS011;23848;49.798;10.228;2022-11-24T02:53:42;8.35;;;3.55;;
26756;SDS011;23848;49.798;10.228;2022-11-24T02:56:11;12.32;;;3.58;;
26756;SDS011;23848;49.798;10.228;2022-11-24T02:58:39;8.30;;;2.80;;
26756;SDS011;23848;49.798;10.228;2022-11-24T03:01:08;5.82;;;3.05;;
26756;SDS011;23848;49.798;10.228;2022-11-24T03:03:38;8.70;;;2.88;;
26756;SDS011;23848;49.798;10.228;2022-11-24T03:06:06;9.98;;;3.00;;
26756;SDS011;23848;49.798;10.228;2022-11-24T03:08:34;10.65;;;3.15;;
26756;SDS011;23848;49.798;10.228;2022-11-24T03:11:03;7.00;;;3.03;;
26756;SDS011;23848;49.798;10.228;2022-11-24T03:13:32;6.20;;;2.90;;
26756;SDS011;23848;49.798;10.228;2022-11-24T03:16:00;8.98;;;3.17;;
26756;SDS011;23848;49.798;10.228;2022-11-24T03:18:29;7.32;;;2.88;;
26756;SDS011;23848;49.798;10.228;2022-11-24T03:20:59;7.63;;;3.10;;
26756;SDS011;23848;49.798;10.228;2022-11-24T03:23:27;8.70;;;3.10;;
26756;SDS011;23848;49.798;10.228;2022-11-24T03:26:04;6.38;;;3.08;;
26756;SDS011;23848;49.798;10.228;2022-11-24T03:28:33;10.57;;;3.40;;
26756;SDS011;23848;49.798;10.228;2022-11-24T03:31:02;10.00;;;3.00;;
26756;SDS011;23848;49.798;10.228;2022-11-24T03:33:30;10.63;;;3.28;;
26756;SDS011;23848;49.798;10.228;2022-11-24T03:36:00;12.85;;;3.30;;
26756;SDS011;23848;49.798;10.228;2022-11-24T03:38:29;8.65;;;2.95;;
26756;SDS011;23848;49.798;10.228;2022-11-24T03:40:57;9.52;;;3.00;;
26756;SDS011;23848;49.798;10.228;2022-11-24T03:43:26;6.00;;;3.22;;
26756;SDS011;23848;49.798;10.228;2022-11-24T03:45:54;11.65;;;3.38;;
26756;SDS011;23848;49.798;10.228;2022-11-24T03:48:23;8.65;;;3.00;;
26756;SDS011;23848;49.798;10.228;2022-11-24T03:50:52;5.20;;;3.00;;
26756;SDS011;23848;49.798;10.228;2022-11-24T03:53:23;8.75;;;2.67;;
26756;SDS011;23848;49.798;10.228;2022-11-24T03:55:52;5.85;;;2.80;;
26756;SDS011;23848;49.798;10.228;2022-11-24T03:58:20;8.77;;;2.88;;
26756;SDS011;23848;49.798;10.228;2022-11-24T04:00:49;6.70;;;2.60;;
26756;SDS011;23848;49.798;10.228;2022-11-24T04:03:18;6.63;;;2.58;;
26756;SDS011;23848;49.798;10.228;2022-11-24T04:05:47;7.15;;;3.10;;
26756;SDS011;23848;49.798;10.228;2022-11-24T04:08:15;6.10;;;2.72;;
26756;SDS011;23848;49.798;10.228;2022-11-24T04:10:47;5.65;;;2.70;;
26756;SDS011;23848;49.798;10.228;2022-11-24T04:13:16;6.30;;;3.13;;
26756;SDS011;23848;49.798;10.228;2022-11-24T04:15:44;13.43;;;3.30;;
26756;SDS011;23848;49.798;10.228;2022-11-24T04:18:13;7.38;;;2.92;;
26756;SDS011;23848;49.798;10.228;2022-11-24T04:20:42;7.68;;;3.08;;
26756;SDS011;23848;49.798;10.228;2022-11-24T04:23:10;8.95;;;3.15;;
26756;SDS011;23848;49.798;10.228;2022-11-24T04:25:39;4.38;;;2.60;;
26756;SDS011;23848;49.798;10.228;2022-11-24T04:28:10;9.25;;;3.10;;
26756;SDS011;23848;49.798;10.228;2022-11-24T04:30:38;7.90;;;3.13;;
26756;SDS011;23848;49.798;10.228;2022-11-24T04:33:10;6.72;;;3.20;;
26756;SDS011;23848;49.798;10.228;2022-11-24T04:35:39;7.07;;;3.15;;
26756;SDS011;23848;49.798;10.228;2022-11-24T04:38:08;9.23;;;3.42;;
26756;SDS011;23848;49.798;10.228;2022-11-24T04:40:36;7.63;;;2.85;;
26756;SDS011;23848;49.798;10.228;2022-11-24T04:43:05;7.10;;;2.83;;
26756;SDS011;23848;49.798;10.228;2022-11-24T04:45:35;7.72;;;3.10;;
26756;SDS011;23848;49.798;10.228;2022-11-24T04:48:03;13.25;;;3.38;;
26756;SDS011;23848;49.798;10.228;2022-11-24T04:50:32;7.22;;;3.03;;
26756;SDS011;23848;49.798;10.228;2022-11-24T04:53:00;9.30;;;3.30;;
26756;SDS011;23848;49.798;10.228;2022-11-24T04:55:29;5.03;;;2.67;;
26756;SDS011;23848;49.798;10.228;2022-11-24T04:57:57;10.20;;;3.45;;
26756;SDS011;23848;49.798;10.228;2022-11-24T05:00:26;7.03;;;3.08;;
26756;SDS011;23848;49.798;10.228;2022-11-24T05:02:56;7.03;;;3.22;;
26756;SDS011;23848;49.798;10.228;2022-11-24T05:05:24;7.57;;;3.47;;
26756;SDS011;23848;49.798;10.228;2022-11-24T05:07:53;5.88;;;2.60;;
26756;SDS011;23848;49.798;10.228;2022-11-24T05:10:21;6.88;;;2.70;;
26756;SDS011;23848;49.798;10.228;2022-11-24T05:13:01;10.95;;;3.65;;
26756;SDS011;23848;49.798;10.228;2022-11-24T05:15:30;8.85;;;2.85;;
26756;SDS011;23848;49.798;10.228;2022-11-24T05:18:00;6.93;;;2.80;;
26756;SDS011;23848;49.798;10.228;2022-11-24T05:20:31;6.57;;;2.70;;
26756;SDS011;23848;49.798;10.228;2022-11-24T05:23:00;9.10;;;2.80;;
26756;SDS011;23848;49.798;10.228;2022-11-24T05:25:29;7.38;;;2.53;;
26756;SDS011;23848;49.798;10.228;2022-11-24T05:27:58;7.13;;;2.33;;
26756;SDS011;23848;49.798;10.228;2022-11-24T05:30:27;8.90;;;2.70;;
26756;SDS011;23848;49.798;10.228;2022-11-24T05:32:56;7.53;;;2.95;;
26756;SDS011;23848;49.798;10.228;2022-11-24T05:35:26;6.30;;;2.42;;
26756;SDS011;23848;49.798;10.228;2022-11-24T05:37:56;7.50;;;2.88;;
26756;SDS011;23848;49.798;10.228;2022-11-24T05:40:25;10.13;;;2.90;;
26756;SDS011;23848;49.798;10.228;2022-11-24T05:42:53;7.22;;;2.58;;
26756;SDS011;23848;49.798;10.228;2022-11-24T05:45:22;8.13;;;2.70;;
26756;SDS011;23848;49.798;10.228;2022-11-24T05:47:50;8.13;;;2.63;;
26756;SDS011;23848;49.798;10.228;2022-11-24T05:50:20;8.63;;;2.85;;
26756;SDS011;23848;49.798;10.228;2022-11-24T05:52:50;9.88;;;2.85;;
26756;SDS011;23848;49.798;10.228;2022-11-24T05:55:18;7.35;;;3.00;;
26756;SDS011;23848;49.798;10.228;2022-11-24T05:57:47;9.00;;;2.88;;
26756;SDS011;23848;49.798;10.228;2022-11-24T06:00:15;8.30;;;3.25;;
26756;SDS011;23848;49.798;10.228;2022-11-24T06:02:45;5.50;;;2.58;;
26756;SDS011;23848;49.798;10.228;2022-11-24T06:05:15;10.48;;;3.28;;
26756;SDS011;23848;49.798;10.228;2022-11-24T06:07:43;9.85;;;2.47;;
26756;SDS011;23848;49.798;10.228;2022-11-24T06:10:13;6.82;;;2.90;;
26756;SDS011;23848;49.798;10.228;2022-11-24T06:12:42;10.30;;;3.17;;
26756;SDS011;23848;49.798;10.228;2022-11-24T06:15:11;9.77;;;3.58;;
26756;SDS011;23848;49.798;10.228;2022-11-24T06:17:40;8.88;;;2.78;;
26756;SDS011;23848;49.798;10.228;2022-11-24T06:20:08;6.10;;;2.92;;
26756;SDS011;23848;49.798;10.228;2022-11-24T06:22:37;13.57;;;2.80;;
26756;SDS011;23848;49.798;10.228;2022-11-24T06:25:06;10.07;;;3.22;;
26756;SDS011;23848;49.798;10.228;2022-11-24T06:27:36;9.57;;;3.10;;
26756;SDS011;23848;49.798;10.228;2022-11-24T06:30:05;13.68;;;3.60;;
26756;SDS011;23848;49.798;10.228;2022-11-24T06:32:33;8.07;;;3.10;;
26756;SDS011;23848;49.798;10.228;2022-11-24T06:35:02;9.77;;;3.58;;
26756;SDS011;23848;49.798;10.228;2022-11-24T06:37:30;10.95;;;4.80;;
26756;SDS011;23848;49.798;10.228;2022-11-24T06:39:59;11.00;;;4.03;;
26756;SDS011;23848;49.798;10.228;2022-11-24T06:42:27;14.43;;;3.63;;
26756;SDS011;23848;49.798;10.228;2022-11-24T06:44:57;11.13;;;3.17;;
26756;SDS011;23848;49.798;10.228;2022-11-24T06:47:25;11.80;;;3.55;;
26756;SDS011;23848;49.798;10.228;2022-11-24T06:49:54;10.05;;;3.08;;
26756;SDS011;23848;49.798;10.228;2022-11-24T06:52:23;14.60;;;4.65;;
26756;SDS011;23848;49.798;10.228;2022-11-24T06:54:51;9.77;;;4.38;;
26756;SDS011;23848;49.798;10.228;2022-11-24T06:57:20;17.58;;;5.88;;
26756;SDS011;23848;49.798;10.228;2022-11-24T06:59:48;17.15;;;8.10;;
26756;SDS011;23848;49.798;10.228;2022-11-24T07:02:18;22.70;;;8.93;;
26756;SDS011;23848;49.798;10.228;2022-11-24T07:04:47;19.45;;;8.05;;
26756;SDS011;23848;49.798;10.228;2022-11-24T07:07:15;14.55;;;7.80;;
26756;SDS011;23848;49.798;10.228;2022-11-24T07:09:44;20.90;;;8.90;;
26756;SDS011;23848;49.798;10.228;2022-11-24T07:12:12;18.20;;;8.20;;
26756;SDS011;23848;49.798;10.228;2022-11-24T07:14:41;19.77;;;11.02;;
26756;SDS011;23848;49.798;10.228;2022-11-24T07:17:09;18.48;;;9.15;;
26756;SDS011;23848;49.798;10.228;2022-11-24T07:19:39;14.98;;;6.57;;
26756;SDS011;23848;49.798;10.228;2022-11-24T07:22:07;10.00;;;5.50;;
26756;SDS011;23848;49.798;10.228;2022-11-24T07:24:36;7.75;;;4.85;;
26756;SDS011;23848;49.798;10.228;2022-11-24T07:27:05;9.88;;;3.67;;
26756;SDS011;23848;49.798;10.228;2022-11-24T07:29:33;11.75;;;4.43;;
26756;SDS011;23848;49.798;10.228;2022-11-24T07:32:01;8.98;;;4.20;;
26756;SDS011;23848;49.798;10.228;2022-11-24T07:34:31;7.70;;;3.28;;
26756;SDS011;23848;49.798;10.228;2022-11-24T07:37:01;12.32;;;3.97;;
26756;SDS011;23848;49.798;10.228;2022-11-24T07:39:29;6.75;;;3.78;;
26756;SDS011;23848;49.798;10.228;2022-11-24T07:41:58;12.23;;;4.43;;
26756;SDS011;23848;49.798;10.228;2022-11-24T07:44:26;10.77;;;4.28;;
26756;SDS011;23848;49.798;10.228;2022-11-24T07:46:55;8.02;;;4.38;;
26756;SDS011;23848;49.798;10.228;2022-11-24T07:49:24;11.85;;;5.68;;
26756;SDS011;23848;49.798;10.228;2022-11-24T07:51:52;11.98;;;4.55;;
26756;SDS011;23848;49.798;10.228;2022-11-24T07:54:22;13.05;;;4.40;;
26756;SDS011;23848;49.798;10.228;2022-11-24T07:56:51;9.90;;;4.53;;
26756;SDS011;23848;49.798;10.228;2022-11-24T07:59:19;15.55;;;4.25;;
26756;SDS011;23848;49.798;10.228;2022-11-24T08:01:48;12.88;;;4.45;;
26756;SDS011;23848;49.798;10.228;2022-11-24T08:04:17;10.95;;;4.20;;
26756;SDS011;23848;49.798;10.228;2022-11-24T08:06:45;11.15;;;3.53;;
26756;SDS011;23848;49.798;10.228;2022-11-24T08:09:14;11.57;;;3.78;;
26756;SDS011;23848;49.798;10.228;2022-11-24T08:11:43;11.93;;;3.50;;
26756;SDS011;23848;49.798;10.228;2022-11-24T08:14:12;8.52;;;3.45;;
26756;SDS011;23848;49.798;10.228;2022-11-24T08:16:40;12.07;;;4.35;;
26756;SDS011;23848;49.798;10.228;2022-11-24T08:19:09;11.13;;;3.60;;
26756;SDS011;23848;49.798;10.228;2022-11-24T08:21:38;14.15;;;3.55;;
26756;SDS011;23848;49.798;10.228;2022-11-24T08:24:06;9.35;;;3.65;;
26756;SDS011;23848;49.798;10.228;2022-11-24T08:26:35;9.75;;;3.97;;
26756;SDS011;23848;49.798;10.228;2022-11-24T08:29:05;8.95;;;2.85;;
26756;SDS011;23848;49.798;10.228;2022-11-24T08:31:34;11.00;;;3.10;;
26756;SDS011;23848;49.798;10.228;2022-11-24T08:34:03;5.95;;;3.10;;
26756;SDS011;23848;49.798;10.228;2022-11-24T08:36:32;7.65;;;2.85;;
26756;SDS011;23848;49.798;10.228;2022-11-24T08:39:00;7.30;;;2.85;;
26756;SDS011;23848;49.798;10.228;2022-11-24T08:41:29;8.45;;;2.20;;
26756;SDS011;23848;49.798;10.228;2022-11-24T08:43:58;9.52;;;2.63;;
26756;SDS011;23848;49.798;10.228;2022-11-24T08:46:28;9.27;;;2.63;;
26756;SDS011;23848;49.798;10.228;2022-11-24T08:48:57;9.48;;;2.55;;
26756;SDS011;23848;49.798;10.228;2022-11-24T08:51:26;11.50;;;2.20;;
26756;SDS011;23848;49.798;10.228;2022-11-24T08:53:54;8.23;;;2.30;;
26756;SDS011;23848;49.798;10.228;2022-11-24T08:56:23;9.18;;;2.88;;
26756;SDS011;23848;49.798;10.228;2022-11-24T08:58:52;6.57;;;2.20;;
26756;SDS011;23848;49.798;10.228;2022-11-24T09:01:21;6.90;;;2.67;;
26756;SDS011;23848;49.798;10.228;2022-11-24T09:03:52;7.70;;;2.75;;
26756;SDS011;23848;49.798;10.228;2022-11-24T09:06:21;5.95;;;2.22;;
26756;SDS011;23848;49.798;10.228;2022-11-24T09:08:50;7.28;;;2.78;;
26756;SDS011;23848;49.798;10.228;2022-11-24T09:11:19;10.90;;;3.00;;
26756;SDS011;23848;49.798;10.228;2022-11-24T09:13:48;6.93;;;2.50;;
26756;SDS011;23848;49.798;10.228;2022-11-24T09:16:18;7.68;;;2.65;;
26756;SDS011;23848;49.798;10.228;2022-11-24T09:18:54;6.72;;;2.85;;
26756;SDS011;23848;49.798;10.228;2022-11-24T09:21:23;8.55;;;2.20;;
26756;SDS011;23848;49.798;10.228;2022-11-24T09:23:52;9.48;;;2.83;;
26756;SDS011;23848;49.798;10.228;2022-11-24T09:26:21;8.43;;;2.30;;
26756;SDS011;23848;49.798;10.228;2022-11-24T09:28:51;7.63;;;2.78;;
26756;SDS011;23848;49.798;10.228;2022-11-24T09:31:21;10.10;;;3.10;;
26756;SDS011;23848;49.798;10.228;2022-11-24T09:33:50;9.13;;;3.50;;
26756;SDS011;23848;49.798;10.228;2022-11-24T09:36:20;9.23;;;2.92;;
26756;SDS011;23848;49.798;10.228;2022-11-24T09:38:49;9.80;;;3.10;;
26756;SDS011;23848;49.798;10.228;2022-11-24T09:44:18;5.97;;;2.80;;
26756;SDS011;23848;49.798;10.228;2022-11-24T09:46:52;8.23;;;2.50;;
26756;SDS011;23848;49.798;10.228;2022-11-24T09:51:54;5.15;;;1.85;;
26756;SDS011;23848;49.798;10.228;2022-11-24T09:54:24;5.78;;;2.20;;
26756;SDS011;23848;49.798;10.228;2022-11-24T09:56:54;6.28;;;1.98;;
26756;SDS011;23848;49.798;10.228;2022-11-24T09:59:24;10.43;;;2.50;;
26756;SDS011;23848;49.798;10.228;2022-11-24T10:01:54;6.75;;;2.13;;
26756;SDS011;23848;49.798;10.228;2022-11-24T10:04:24;6.53;;;2.30;;
26756;SDS011;23848;49.798;10.228;2022-11-24T10:06:57;10.13;;;2.58;;
26756;SDS011;23848;49.798;10.228;2022-11-24T10:09:36;8.65;;;3.00;;
26756;SDS011;23848;49.798;10.228;2022-11-24T10:12:10;11.48;;;2.75;;
26756;SDS011;23848;49.798;10.228;2022-11-24T10:14:57;7.07;;;2.08;;
26756;SDS011;23848;49.798;10.228;2022-11-24T10:20:13;7.90;;;2.45;;
26756;SDS011;23848;49.798;10.228;2022-11-24T10:22:48;6.57;;;2.28;;
26756;SDS011;23848;49.798;10.228;2022-11-24T10:25:20;5.55;;;1.95;;
26756;SDS011;23848;49.798;10.228;2022-11-24T10:27:54;5.30;;;2.03;;
26756;SDS011;23848;49.798;10.228;2022-11-24T10:30:25;5.00;;;1.85;;
26756;SDS011;23848;49.798;10.228;2022-11-24T10:32:55;6.18;;;1.58;;
26756;SDS011;23848;49.798;10.228;2022-11-24T10:35:26;7.20;;;2.47;;
26756;SDS011;23848;49.798;10.228;2022-11-24T10:37:59;4.05;;;1.83;;
26756;SDS011;23848;49.798;10.228;2022-11-24T10:40:34;5.57;;;2.05;;
26756;SDS011;23848;49.798;10.228;2022-11-24T10:43:24;6.05;;;2.67;;
26756;SDS011;23848;49.798;10.228;2022-11-24T10:45:54;6.43;;;2.15;;
26756;SDS011;23848;49.798;10.228;2022-11-24T10:48:26;4.43;;;1.60;;
26756;SDS011;23848;49.798;10.228;2022-11-24T10:50:56;6.35;;;2.00;;
26756;SDS011;23848;49.798;10.228;2022-11-24T10:53:29;8.23;;;2.30;;
26756;SDS011;23848;49.798;10.228;2022-11-24T10:55:59;6.35;;;2.15;;
26756;SDS011;23848;49.798;10.228;2022-11-24T10:58:29;7.13;;;2.03;;
26756;SDS011;23848;49.798;10.228;2022-11-24T11:01:17;7.75;;;2.30;;
26756;SDS011;23848;49.798;10.228;2022-11-24T11:03:47;4.90;;;1.90;;
26756;SDS011;23848;49.798;10.228;2022-11-24T11:06:20;7.00;;;1.80;;
26756;SDS011;23848;49.798;10.228;2022-11-24T11:08:53;9.57;;;3.08;;
26756;SDS011;23848;49.798;10.228;2022-11-24T11:11:38;3.65;;;1.60;;
26756;SDS011;23848;49.798;10.228;2022-11-24T11:14:07;5.13;;;1.67;;
26756;SDS011;23848;49.798;10.228;2022-11-24T11:16:38;5.45;;;1.63;;
26756;SDS011;23848;49.798;10.228;2022-11-24T11:22:12;8.55;;;2.58;;
26756;SDS011;23848;49.798;10.228;2022-11-24T11:24:43;7.35;;;1.98;;
26756;SDS011;23848;49.798;10.228;2022-11-24T11:27:15;4.45;;;1.52;;
26756;SDS011;23848;49.798;10.228;2022-11-24T11:29:44;6.70;;;1.60;;
26756;SDS011;23848;49.798;10.228;2022-11-24T11:32:33;4.97;;;2.75;;
26756;SDS011;23848;49.798;10.228;2022-11-24T11:35:22;5.90;;;1.77;;
26756;SDS011;23848;49.798;10.228;2022-11-24T11:37:52;4.57;;;1.77;;
26756;SDS011;23848;49.798;10.228;2022-11-24T11:40:23;6.50;;;1.75;;
26756;SDS011;23848;49.798;10.228;2022-11-24T11:42:54;7.63;;;1.77;;
26756;SDS011;23848;49.798;10.228;2022-11-24T11:45:30;5.97;;;1.60;;
26756;SDS011;23848;49.798;10.228;2022-11-24T11:48:05;8.93;;;1.90;;
26756;SDS011;23848;49.798;10.228;2022-11-24T11:50:38;4.15;;;1.75;;
26756;SDS011;23848;49.798;10.228;2022-11-24T11:53:28;4.88;;;1.70;;
26756;SDS011;23848;49.798;10.228;2022-11-24T11:56:00;6.55;;;1.33;;
26756;SDS011;23848;49.798;10.228;2022-11-24T12:01:44;5.40;;;1.45;;
26756;SDS011;23848;49.798;10.228;2022-11-24T12:04:33;5.93;;;2.13;;
26756;SDS011;23848;49.798;10.228;2022-11-24T12:07:18;4.28;;;1.40;;
26756;SDS011;23848;49.798;10.228;2022-11-24T12:10:07;3.78;;;1.45;;
26756;SDS011;23848;49.798;10.228;2022-11-24T12:12:54;5.15;;;1.83;;
26756;SDS011;23848;49.798;10.228;2022-11-24T12:15:43;7.78;;;1.92;;
26756;SDS011;23848;49.798;10.228;2022-11-24T12:18:19;5.80;;;2.08;;
26756;SDS011;23848;49.798;10.228;2022-11-24T12:21:15;5.55;;;1.80;;
26756;SDS011;23848;49.798;10.228;2022-11-24T12:23:55;4.55;;;1.73;;
26756;SDS011;23848;49.798;10.228;2022-11-24T12:26:31;3.40;;;1.50;;
26756;SDS011;23848;49.798;10.228;2022-11-24T12:29:20;6.13;;;1.75;;
26756;SDS011;23848;49.798;10.228;2022-11-24T12:32:02;5.63;;;1.45;;
26756;SDS011;23848;49.798;10.228;2022-11-24T12:34:43;4.38;;;1.58;;
26756;SDS011;23848;49.798;10.228;2022-11-24T12:40:03;5.43;;;1.42;;
26756;SDS011;23848;49.798;10.228;2022-11-24T12:42:34;9.55;;;2.33;;
26756;SDS011;23848;49.798;10.228;2022-11-24T12:45:13;8.53;;;2.27;;
26756;SDS011;23848;49.798;10.228;2022-11-24T12:47:48;6.53;;;2.00;;
26756;SDS011;23848;49.798;10.228;2022-11-24T12:50:22;8.07;;;2.00;;
26756;SDS011;23848;49.798;10.228;2022-11-24T12:52:52;5.82;;;2.25;;
26756;SDS011;23848;49.798;10.228;2022-11-24T12:55:26;6.35;;;2.42;;
26756;SDS011;23848;49.798;10.228;2022-11-24T12:57:57;6.85;;;2.10;;
26756;SDS011;23848;49.798;10.228;2022-11-24T13:00:40;4.22;;;1.63;;
26756;SDS011;23848;49.798;10.228;2022-11-24T13:03:14;3.63;;;1.10;;
26756;SDS011;23848;49.798;10.228;2022-11-24T13:08:15;2.80;;;1.35;;
26756;SDS011;23848;49.798;10.228;2022-11-24T13:10:44;6.30;;;1.88;;
26756;SDS011;23848;49.798;10.228;2022-11-24T13:13:25;5.75;;;1.80;;
26756;SDS011;23848;49.798;10.228;2022-11-24T13:16:19;4.95;;;1.70;;
26756;SDS011;23848;49.798;10.228;2022-11-24T13:19:08;5.68;;;1.52;;
26756;SDS011;23848;49.798;10.228;2022-11-24T13:24:30;5.28;;;1.73;;
26756;SDS011;23848;49.798;10.228;2022-11-24T13:29:52;3.15;;;1.48;;
26756;SDS011;23848;49.798;10.228;2022-11-24T13:35:20;7.30;;;1.58;;
26756;SDS011;23848;49.798;10.228;2022-11-24T13:37:49;4.85;;;1.85;;
26756;SDS011;23848;49.798;10.228;2022-11-24T13:40:40;3.80;;;1.65;;
26756;SDS011;23848;49.798;10.228;2022-11-24T13:43:30;6.32;;;2.20;;
26756;SDS011;23848;49.798;10.228;2022-11-24T13:45:58;5.13;;;1.50;;
26756;SDS011;23848;49.798;10.228;2022-11-24T13:51:20;7.30;;;1.95;;
26756;SDS011;23848;49.798;10.228;2022-11-24T13:53:49;3.70;;;1.50;;
26756;SDS011;23848;49.798;10.228;2022-11-24T13:56:21;6.90;;;1.80;;
26756;SDS011;23848;49.798;10.228;2022-11-24T13:58:51;4.70;;;1.33;;
26756;SDS011;23848;49.798;10.228;2022-11-24T14:01:21;6.15;;;1.70;;
26756;SDS011;23848;49.798;10.228;2022-11-24T14:06:56;6.75;;;1.88;;
26756;SDS011;23848;49.798;10.228;2022-11-24T14:09:33;6.25;;;1.80;;
26756;SDS011;23848;49.798;10.228;2022-11-24T14:12:05;6.70;;;1.67;;
26756;SDS011;23848;49.798;10.228;2022-11-24T14:14:33;7.00;;;2.08;;
26756;SDS011;23848;49.798;10.228;2022-11-24T14:17:19;5.93;;;1.83;;
26756;SDS011;23848;49.798;10.228;2022-11-24T14:19:49;5.97;;;1.98;;
26756;SDS011;23848;49.798;10.228;2022-11-24T14:22:20;7.93;;;1.95;;
26756;SDS011;23848;49.798;10.228;2022-11-24T14:24:52;5.78;;;1.70;;
26756;SDS011;23848;49.798;10.228;2022-11-24T14:27:24;4.05;;;2.10;;
26756;SDS011;23848;49.798;10.228;2022-11-24T14:29:57;5.72;;;2.00;;
26756;SDS011;23848;49.798;10.228;2022-11-24T14:32:26;8.38;;;2.97;;
26756;SDS011;23848;49.798;10.228;2022-11-24T14:34:54;9.70;;;3.80;;
26756;SDS011;23848;49.798;10.228;2022-11-24T14:37:24;6.43;;;3.30;;
26756;SDS011;23848;49.798;10.228;2022-11-24T14:39:53;9.13;;;3.30;;
26756;SDS011;23848;49.798;10.228;2022-11-24T14:42:22;9.77;;;3.80;;
26756;SDS011;23848;49.798;10.228;2022-11-24T14:44:52;7.05;;;3.63;;
26756;SDS011;23848;49.798;10.228;2022-11-24T14:47:23;6.53;;;2.70;;
26756;SDS011;23848;49.798;10.228;2022-11-24T14:49:58;5.88;;;2.42;;
26756;SDS011;23848;49.798;10.228;2022-11-24T14:52:34;9.65;;;4.00;;
26756;SDS011;23848;49.798;10.228;2022-11-24T14:55:03;9.50;;;3.53;;
26756;SDS011;23848;49.798;10.228;2022-11-24T14:57:48;10.00;;;3.47;;
26756;SDS011;23848;49.798;10.228;2022-11-24T15:00:17;7.90;;;2.90;;
26756;SDS011;23848;49.798;10.228;2022-11-24T15:02:47;7.90;;;3.42;;
26756;SDS011;23848;49.798;10.228;2022-11-24T15:05:19;5.60;;;3.08;;
26756;SDS011;23848;49.798;10.228;2022-11-24T15:07:50;7.13;;;3.25;;
26756;SDS011;23848;49.798;10.228;2022-11-24T15:10:20;7.75;;;3.42;;
26756;SDS011;23848;49.798;10.228;2022-11-24T15:12:57;8.07;;;3.40;;
26756;SDS011;23848;49.798;10.228;2022-11-24T15:15:28;7.43;;;3.00;;
26756;SDS011;23848;49.798;10.228;2022-11-24T15:17:58;8.38;;;3.67;;
26756;SDS011;23848;49.798;10.228;2022-11-24T15:20:27;5.70;;;2.80;;
26756;SDS011;23848;49.798;10.228;2022-11-24T15:25:45;5.57;;;2.80;;
26756;SDS011;23848;49.798;10.228;2022-11-24T15:28:14;5.38;;;2.22;;
26756;SDS011;23848;49.798;10.228;2022-11-24T15:30:43;8.63;;;3.47;;
26756;SDS011;23848;49.798;10.228;2022-11-24T15:33:13;4.93;;;2.53;;